Terminal Aerodrome Forecast
Issued by NWS Burlington, VT

Home | Current Version | Previous Version | Text Only | Print | Product List | Glossary On
Versions: 1 2 3 4 5 6 7 8 9 10 11 12 13 14 15 16
000
FTUS41 KBTV 201739
TAFBTV
TAF
KBTV 201739Z 2018/2118 18012G20KT P6SM VCSH OVC045
      TEMPO 2018/2022 5SM -SHRA OVC020
     FM202200 18012G18KT P6SM OVC020
     FM210700 19015G23KT P6SM OVC035
     FM211400 19018G27KT P6SM BKN025=

USA.gov is the U.S. government's official web portal to all federal, state and local government web resources and services.